Time;durP1;ratioP1;P1;durP2;ratioP2;P2;SDS_P1;SDS_P2;PMS_P1;PMS_P2;Temp;Humidity;BMP_temperature;BMP_pressure;BME280_temperature;BME280_humidity;BME280_pressure;Samples;Min_cycle;Max_cycle;Signal;HPM_P1;HPM_P2
2022/06/14 00:02:39;;;;;;;4.30;2.90;;;;;;;;;;5897112;24;20205;-84
2022/06/14 01:04:16;;;;;;;4.30;2.83;;;;;;;;;;6247241;22;20206;-85
2022/06/14 01:06:46;;;;;;;3.38;3.00;;;;;;;;;;6306843;22;20237;-85
2022/06/14 01:09:17;;;;;;;3.38;2.90;;;;;;;;;;6307317;22;20167;-86
2022/06/14 01:11:46;;;;;;;2.80;2.50;;;;;;;;;;6307815;22;20186;-86
2022/06/14 01:14:16;;;;;;;4.10;2.72;;;;;;;;;;6307357;22;20198;-85
2022/06/14 01:16:44;;;;;;;3.25;2.90;;;;;;;;;;6308223;22;20167;-85
2022/06/14 01:19:15;;;;;;;3.15;2.75;;;;;;;;;;6306634;22;20196;-85
2022/06/14 01:21:43;;;;;;;3.00;2.70;;;;;;;;;;6307332;22;20576;-86
2022/06/14 01:24:11;;;;;;;4.47;3.20;;;;;;;;;;6306732;22;20193;-85
2022/06/14 01:26:39;;;;;;;4.45;3.15;;;;;;;;;;6307207;22;20202;-84
2022/06/14 01:29:07;;;;;;;3.58;3.25;;;;;;;;;;6306717;22;20167;-85
2022/06/14 01:31:34;;;;;;;4.40;3.10;;;;;;;;;;6307152;22;20666;-85
2022/06/14 01:34:03;;;;;;;4.63;3.10;;;;;;;;;;6307276;22;20187;-85
2022/06/14 01:36:34;;;;;;;4.25;2.80;;;;;;;;;;6307566;22;20225;-86
2022/06/14 01:39:02;;;;;;;3.40;2.90;;;;;;;;;;6306788;22;20537;-85
2022/06/14 01:41:37;;;;;;;3.45;3.10;;;;;;;;;;6307453;22;20171;-85
2022/06/14 01:44:11;;;;;;;5.43;2.90;;;;;;;;;;6306418;22;20246;-85
2022/06/14 01:46:44;;;;;;;4.40;2.90;;;;;;;;;;6306307;22;20189;-85
2022/06/14 01:52:18;;;;;;;3.45;3.00;;;;;;;;;;6250732;22;20167;-85
2022/06/14 01:54:51;;;;;;;3.72;2.97;;;;;;;;;;6306325;22;20240;-85
2022/06/14 01:57:30;;;;;;;4.00;3.00;;;;;;;;;;6305836;22;20172;-85
2022/06/14 02:00:00;;;;;;;5.22;3.25;;;;;;;;;;6306696;22;20163;-83
2022/06/14 02:02:29;;;;;;;3.72;3.30;;;;;;;;;;6306515;22;20198;-84
2022/06/14 02:05:00;;;;;;;3.67;3.20;;;;;;;;;;6336579;22;20253;-84
2022/06/14 02:07:30;;;;;;;3.30;3.00;;;;;;;;;;6336492;22;20154;-85
2022/06/14 02:10:00;;;;;;;3.58;2.95;;;;;;;;;;6336129;22;20171;-85
2022/06/14 02:12:36;;;;;;;4.18;3.50;;;;;;;;;;6336043;22;20197;-84
2022/06/14 02:15:07;;;;;;;3.70;3.03;;;;;;;;;;6336224;22;20158;-84
2022/06/14 02:17:37;;;;;;;4.50;3.40;;;;;;;;;;6337034;22;20182;-85
2022/06/14 02:20:06;;;;;;;3.30;2.97;;;;;;;;;;6337551;22;20173;-86
2022/06/14 02:22:35;;;;;;;4.57;3.20;;;;;;;;;;6336740;22;20177;-85
2022/06/14 02:25:04;;;;;;;3.90;3.22;;;;;;;;;;6337319;22;20241;-83
2022/06/14 02:27:36;;;;;;;4.00;3.22;;;;;;;;;;6336720;22;20237;-84
2022/06/14 02:30:06;;;;;;;3.55;2.90;;;;;;;;;;6336973;22;20163;-84
2022/06/14 02:32:36;;;;;;;4.25;3.00;;;;;;;;;;6337133;22;20163;-85
2022/06/14 02:35:08;;;;;;;3.78;3.38;;;;;;;;;;6337668;22;20171;-84
2022/06/14 02:37:37;;;;;;;5.00;3.35;;;;;;;;;;6336639;22;20186;-86
2022/06/14 02:40:08;;;;;;;4.35;3.50;;;;;;;;;;6337222;22;20170;-85
2022/06/14 02:42:37;;;;;;;3.28;2.97;;;;;;;;;;6337025;22;20519;-85
2022/06/14 02:45:08;;;;;;;5.15;3.55;;;;;;;;;;6337460;22;20170;-85
2022/06/14 02:47:39;;;;;;;3.25;2.95;;;;;;;;;;6337159;22;20167;-84
2022/06/14 02:50:10;;;;;;;4.00;3.05;;;;;;;;;;6338018;22;20220;-85
2022/06/14 02:52:41;;;;;;;3.28;2.90;;;;;;;;;;6337029;22;20174;-83
2022/06/14 02:55:11;;;;;;;4.05;3.25;;;;;;;;;;6337342;22;20170;-85
2022/06/14 02:57:43;;;;;;;5.03;3.20;;;;;;;;;;6337012;22;20177;-83
2022/06/14 03:00:12;;;;;;;4.60;3.33;;;;;;;;;;6337377;22;20163;-85
2022/06/14 03:02:43;;;;;;;3.92;3.20;;;;;;;;;;6337550;22;20205;-85
2022/06/14 03:05:12;;;;;;;4.93;3.10;;;;;;;;;;6337769;22;20211;-84
2022/06/14 03:07:41;;;;;;;3.28;2.97;;;;;;;;;;6336716;22;20174;-85
2022/06/14 03:10:11;;;;;;;3.65;3.33;;;;;;;;;;6337801;22;20216;-84
2022/06/14 03:12:43;;;;;;;5.53;3.63;;;;;;;;;;6337427;22;20227;-83
2022/06/14 03:15:13;;;;;;;3.63;3.25;;;;;;;;;;6337718;22;20162;-85
2022/06/14 03:17:51;;;;;;;3.83;3.40;;;;;;;;;;6337287;22;20174;-85
2022/06/14 03:20:27;;;;;;;5.50;3.30;;;;;;;;;;6337063;22;20508;-84
2022/06/14 03:22:57;;;;;;;3.67;3.28;;;;;;;;;;6335277;22;20194;-87
2022/06/14 03:25:27;;;;;;;4.38;3.60;;;;;;;;;;6335981;22;20194;-84
2022/06/14 03:27:58;;;;;;;3.88;3.53;;;;;;;;;;6335307;22;20167;-84
2022/06/14 03:30:28;;;;;;;4.93;3.15;;;;;;;;;;6335548;22;20216;-82
2022/06/14 03:33:00;;;;;;;4.75;3.28;;;;;;;;;;6335973;22;20187;-84
2022/06/14 03:35:31;;;;;;;4.60;3.35;;;;;;;;;;6336278;22;20182;-84
2022/06/14 03:38:01;;;;;;;3.95;3.45;;;;;;;;;;6335248;22;20191;-84
2022/06/14 03:40:28;;;;;;;5.00;3.25;;;;;;;;;;6336029;22;20228;-84
2022/06/14 03:42:57;;;;;;;4.35;3.38;;;;;;;;;;6337434;22;20190;-84
2022/06/14 03:45:29;;;;;;;3.50;3.20;;;;;;;;;;6338342;22;20182;-84
2022/06/14 03:47:57;;;;;;;3.78;3.17;;;;;;;;;;6337157;22;20198;-85
2022/06/14 03:50:26;;;;;;;3.78;3.28;;;;;;;;;;6336952;22;20170;-84
2022/06/14 03:52:58;;;;;;;4.47;3.53;;;;;;;;;;6338322;22;20213;-85
2022/06/14 03:55:33;;;;;;;3.72;3.17;;;;;;;;;;6337432;22;20163;-84
2022/06/14 03:58:07;;;;;;;3.88;3.30;;;;;;;;;;6338352;22;20166;-84
2022/06/14 04:00:39;;;;;;;5.25;3.25;;;;;;;;;;6338154;22;20195;-84
2022/06/14 04:03:27;;;;;;;4.47;3.33;;;;;;;;;;6341446;22;20199;-83
2022/06/14 04:06:02;;;;;;;3.78;3.30;;;;;;;;;;6334324;22;20182;-83
2022/06/14 04:08:35;;;;;;;7.40;3.70;;;;;;;;;;6341028;22;20162;-84
2022/06/14 04:11:09;;;;;;;4.20;3.50;;;;;;;;;;6336694;22;20224;-84
2022/06/14 04:13:42;;;;;;;3.75;3.45;;;;;;;;;;6336753;22;20708;-82
2022/06/14 04:16:15;;;;;;;5.25;3.55;;;;;;;;;;6336646;22;20167;-84
2022/06/14 04:18:48;;;;;;;3.75;3.40;;;;;;;;;;6337173;22;20179;-84
2022/06/14 04:21:23;;;;;;;3.95;3.55;;;;;;;;;;6336998;22;20202;-85
2022/06/14 04:23:54;;;;;;;3.88;3.45;;;;;;;;;;6337275;22;20217;-83
2022/06/14 04:33:03;;;;;;;3.47;3.17;;;;;;;;;;6112751;22;20199;-88
2022/06/14 04:35:34;;;;;;;13.32;3.72;;;;;;;;;;6321440;22;20174;-85
2022/06/14 04:38:04;;;;;;;13.40;4.40;;;;;;;;;;6334963;22;20174;-86
2022/06/14 04:47:19;;;;;;;13.38;4.18;;;;;;;;;;6066492;23;20247;-89
2022/06/14 04:49:48;;;;;;;14.43;4.57;;;;;;;;;;6159265;23;20211;-84
2022/06/14 04:52:22;;;;;;;11.15;4.57;;;;;;;;;;6211253;23;20248;-87
2022/06/14 04:54:52;;;;;;;10.23;4.45;;;;;;;;;;6209714;23;20173;-84
2022/06/14 04:57:23;;;;;;;14.50;5.95;;;;;;;;;;6209482;23;20264;-87
2022/06/14 04:59:53;;;;;;;13.00;5.70;;;;;;;;;;6209221;23;20193;-86
2022/06/14 05:02:23;;;;;;;17.40;5.95;;;;;;;;;;6209619;23;20166;-85
2022/06/14 05:04:53;;;;;;;18.58;6.32;;;;;;;;;;6209475;23;20284;-87
2022/06/14 05:07:24;;;;;;;16.23;6.10;;;;;;;;;;6209563;23;20181;-85
2022/06/14 05:09:55;;;;;;;16.08;6.88;;;;;;;;;;6209512;23;20554;-86
2022/06/14 05:12:26;;;;;;;16.88;6.10;;;;;;;;;;6209771;23;20165;-86
2022/06/14 05:14:55;;;;;;;18.63;6.35;;;;;;;;;;6210238;23;20776;-86
2022/06/14 05:17:26;;;;;;;14.80;6.28;;;;;;;;;;6208969;23;20279;-85
2022/06/14 05:19:56;;;;;;;16.50;6.28;;;;;;;;;;6267965;22;20190;-86
2022/06/14 05:22:30;;;;;;;5.88;4.00;;;;;;;;;;6337963;22;20170;-84
2022/06/14 05:24:58;;;;;;;9.50;4.05;;;;;;;;;;6339402;22;20158;-83
2022/06/14 05:27:38;;;;;;;8.63;4.35;;;;;;;;;;6336307;22;20188;-86
2022/06/14 05:30:09;;;;;;;10.50;4.25;;;;;;;;;;6337236;22;20196;-85
2022/06/14 05:32:41;;;;;;;8.43;4.30;;;;;;;;;;6337682;22;20178;-86
2022/06/14 05:35:16;;;;;;;8.32;4.80;;;;;;;;;;6338661;22;20162;-83
2022/06/14 05:37:48;;;;;;;12.23;4.88;;;;;;;;;;6338455;22;20166;-82
2022/06/14 05:40:20;;;;;;;9.32;4.50;;;;;;;;;;6341365;22;20198;-84
2022/06/14 05:42:52;;;;;;;6.88;3.90;;;;;;;;;;6339444;22;20735;-86
2022/06/14 05:45:22;;;;;;;9.98;4.78;;;;;;;;;;6339172;22;20167;-84
2022/06/14 05:47:51;;;;;;;6.75;4.47;;;;;;;;;;6338160;22;20169;-84
2022/06/14 05:50:21;;;;;;;7.40;4.07;;;;;;;;;;6338649;22;20245;-83
2022/06/14 05:52:52;;;;;;;8.32;4.72;;;;;;;;;;6338428;22;20249;-81
2022/06/14 05:55:22;;;;;;;6.95;4.18;;;;;;;;;;6338834;22;20162;-83
2022/06/14 05:57:51;;;;;;;7.30;4.20;;;;;;;;;;6338424;22;20174;-83
2022/06/14 06:00:23;;;;;;;4.50;3.80;;;;;;;;;;6338491;22;20231;-86
2022/06/14 06:02:53;;;;;;;9.25;4.40;;;;;;;;;;6337074;22;20190;-84
2022/06/14 06:05:23;;;;;;;8.77;4.40;;;;;;;;;;6337876;22;20558;-82
2022/06/14 06:07:57;;;;;;;6.13;4.18;;;;;;;;;;6340301;22;20220;-85
2022/06/14 06:10:27;;;;;;;6.50;4.13;;;;;;;;;;6338491;22;20185;-82
2022/06/14 06:12:57;;;;;;;6.65;4.18;;;;;;;;;;6343028;22;20202;-83
2022/06/14 06:15:27;;;;;;;7.03;4.30;;;;;;;;;;6339291;22;20174;-84
2022/06/14 06:17:56;;;;;;;6.93;4.47;;;;;;;;;;6338494;22;20170;-84
2022/06/14 06:20:29;;;;;;;7.25;4.10;;;;;;;;;;6338402;22;20186;-83
2022/06/14 06:23:00;;;;;;;7.25;4.38;;;;;;;;;;6337545;22;20197;-83
2022/06/14 06:25:28;;;;;;;6.35;3.97;;;;;;;;;;6339040;22;20174;-83
2022/06/14 06:28:01;;;;;;;6.22;3.85;;;;;;;;;;6337791;22;20170;-84
2022/06/14 06:30:31;;;;;;;5.68;3.88;;;;;;;;;;6339982;22;20158;-84
2022/06/14 06:32:59;;;;;;;6.38;4.18;;;;;;;;;;6340144;22;20247;-84
2022/06/14 06:35:34;;;;;;;6.65;3.97;;;;;;;;;;6342882;22;20175;-84
2022/06/14 06:38:07;;;;;;;4.30;3.78;;;;;;;;;;6344083;22;20166;-83
2022/06/14 06:40:35;;;;;;;5.82;4.00;;;;;;;;;;6345733;22;20638;-84
2022/06/14 06:43:05;;;;;;;5.75;3.80;;;;;;;;;;6345924;22;20265;-83
2022/06/14 06:45:36;;;;;;;4.88;3.63;;;;;;;;;;6345909;22;20181;-83
2022/06/14 06:48:11;;;;;;;5.78;3.80;;;;;;;;;;6340833;22;20212;-83
2022/06/14 06:50:45;;;;;;;5.10;3.58;;;;;;;;;;6341180;22;20158;-84
2022/06/14 06:53:15;;;;;;;6.63;3.88;;;;;;;;;;6340037;22;20200;-83
2022/06/14 06:55:46;;;;;;;5.30;3.65;;;;;;;;;;6339685;22;20208;-84
2022/06/14 06:58:19;;;;;;;4.97;3.67;;;;;;;;;;6338962;22;20190;-82
2022/06/14 07:00:47;;;;;;;4.93;3.40;;;;;;;;;;6337519;22;20183;-83
2022/06/14 07:03:17;;;;;;;5.60;3.60;;;;;;;;;;6344009;22;20202;-83
2022/06/14 07:05:51;;;;;;;5.45;3.53;;;;;;;;;;6325454;22;20236;-89
2022/06/14 07:08:38;;;;;;;4.38;3.45;;;;;;;;;;6305544;22;20168;-89
2022/06/14 07:11:07;;;;;;;4.35;3.38;;;;;;;;;;6305931;22;20159;-87
2022/06/14 07:13:40;;;;;;;5.78;3.58;;;;;;;;;;6305866;22;20168;-90
2022/06/14 07:16:15;;;;;;;4.10;3.53;;;;;;;;;;6305951;22;20195;-88
2022/06/14 07:18:47;;;;;;;4.40;3.38;;;;;;;;;;6308273;22;20220;-89
2022/06/14 07:21:21;;;;;;;3.78;3.35;;;;;;;;;;6308869;22;20167;-88
2022/06/14 07:24:00;;;;;;;4.00;3.15;;;;;;;;;;6307868;22;20173;-88
2022/06/14 07:29:38;;;;;;;3.63;3.20;;;;;;;;;;6303289;22;20199;-89
2022/06/14 07:32:11;;;;;;;5.60;3.67;;;;;;;;;;6308002;22;20171;-90
2022/06/14 07:34:41;;;;;;;4.07;3.40;;;;;;;;;;6307381;22;20175;-89
2022/06/14 07:37:13;;;;;;;4.40;3.20;;;;;;;;;;6316323;22;20159;-91
2022/06/14 07:39:45;;;;;;;5.32;3.25;;;;;;;;;;6336136;22;20179;-91
2022/06/14 07:42:39;;;;;;;3.95;3.05;;;;;;;;;;6336117;22;20162;-90
2022/06/14 07:45:16;;;;;;;4.18;3.30;;;;;;;;;;6242789;23;20267;-90
2022/06/14 07:47:45;;;;;;;3.42;2.97;;;;;;;;;;6253770;22;20224;-90
2022/06/14 07:50:14;;;;;;;3.65;3.13;;;;;;;;;;6307438;22;20167;-90
2022/06/14 07:52:47;;;;;;;4.43;3.85;;;;;;;;;;6307434;22;20171;-91
2022/06/14 07:55:18;;;;;;;3.63;3.20;;;;;;;;;;6307402;22;20191;-89
2022/06/14 07:57:52;;;;;;;4.18;3.15;;;;;;;;;;6307436;22;20167;-88
2022/06/14 08:03:13;;;;;;;3.70;3.13;;;;;;;;;;6307649;22;20197;-88
2022/06/14 08:05:48;;;;;;;4.07;3.15;;;;;;;;;;6318924;22;20689;-89
2022/06/14 08:08:17;;;;;;;4.75;3.05;;;;;;;;;;6338344;22;20158;-88
2022/06/14 08:10:54;;;;;;;3.78;2.90;;;;;;;;;;6338592;22;20174;-91
2022/06/14 08:13:24;;;;;;;3.75;2.90;;;;;;;;;;6338685;22;20216;-89
2022/06/14 08:15:53;;;;;;;3.67;3.05;;;;;;;;;;6338368;22;20190;-89
2022/06/14 08:18:26;;;;;;;4.40;3.33;;;;;;;;;;6338011;22;20171;-90
2022/06/14 08:20:56;;;;;;;3.40;3.10;;;;;;;;;;6338226;22;20187;-90
2022/06/14 08:26:24;;;;;;;5.47;3.20;;;;;;;;;;6333742;22;20229;-89
2022/06/14 08:28:58;;;;;;;4.65;3.20;;;;;;;;;;6337915;22;20250;-90
2022/06/14 08:31:31;;;;;;;3.58;3.25;;;;;;;;;;6337727;22;20155;-88
2022/06/14 08:34:01;;;;;;;5.90;3.40;;;;;;;;;;6338130;22;20251;-89
2022/06/14 08:36:30;;;;;;;3.60;3.30;;;;;;;;;;6337543;22;20190;-90
2022/06/14 08:39:00;;;;;;;3.55;3.25;;;;;;;;;;6337922;22;20171;-90
2022/06/14 08:41:41;;;;;;;3.78;3.47;;;;;;;;;;6337593;22;20190;-89
2022/06/14 08:44:15;;;;;;;3.45;3.08;;;;;;;;;;6337703;22;20163;-90
2022/06/14 08:46:43;;;;;;;3.40;3.00;;;;;;;;;;6337250;22;20378;-89
2022/06/14 08:49:26;;;;;;;3.85;3.40;;;;;;;;;;6337888;22;20171;-90
2022/06/14 08:52:06;;;;;;;3.67;3.30;;;;;;;;;;6339017;22;20166;-89
2022/06/14 08:54:46;;;;;;;3.30;3.05;;;;;;;;;;6338137;22;20173;-90
2022/06/14 08:57:28;;;;;;;3.28;2.97;;;;;;;;;;6337712;22;20537;-90
2022/06/14 09:00:20;;;;;;;3.25;3.05;;;;;;;;;;6337776;22;20538;-89
2022/06/14 09:03:06;;;;;;;3.20;2.90;;;;;;;;;;6337849;22;20166;-89
2022/06/14 09:05:50;;;;;;;3.30;3.00;;;;;;;;;;6337034;22;20195;-90
2022/06/14 09:08:30;;;;;;;3.30;2.78;;;;;;;;;;6337415;22;20169;-90
2022/06/14 09:11:26;;;;;;;3.05;2.80;;;;;;;;;;6338417;22;20169;-87
2022/06/14 09:14:07;;;;;;;3.50;3.20;;;;;;;;;;6266938;22;20186;-91
2022/06/14 09:16:43;;;;;;;3.53;3.13;;;;;;;;;;6337990;22;20192;-89
2022/06/14 09:19:23;;;;;;;3.15;2.92;;;;;;;;;;6337437;22;20602;-90
2022/06/14 09:21:58;;;;;;;3.13;2.90;;;;;;;;;;6337509;22;20173;-90
2022/06/14 09:24:42;;;;;;;3.40;3.10;;;;;;;;;;6337479;22;20242;-90
2022/06/14 09:27:14;;;;;;;3.30;3.00;;;;;;;;;;6337558;22;20232;-89
2022/06/14 09:30:02;;;;;;;3.58;3.08;;;;;;;;;;6337825;22;20170;-90
2022/06/14 09:35:36;;;;;;;3.20;2.90;;;;;;;;;;6337394;22;20266;-90
2022/06/14 09:38:32;;;;;;;3.15;2.88;;;;;;;;;;6338970;22;20162;-90
2022/06/14 09:41:16;;;;;;;5.50;3.33;;;;;;;;;;6339106;22;20670;-87
2022/06/14 09:43:52;;;;;;;3.35;2.75;;;;;;;;;;6337193;22;20641;-86
2022/06/14 09:46:47;;;;;;;3.30;2.95;;;;;;;;;;6337225;22;20190;-87
2022/06/14 09:49:32;;;;;;;3.30;3.00;;;;;;;;;;6338201;22;20189;-88
2022/06/14 09:52:11;;;;;;;4.18;2.92;;;;;;;;;;6337416;22;20162;-88
2022/06/14 09:54:47;;;;;;;3.72;3.20;;;;;;;;;;6337050;22;20177;-88
2022/06/14 09:57:31;;;;;;;2.88;2.67;;;;;;;;;;6349914;22;20161;-93
2022/06/14 10:00:29;;;;;;;4.15;3.10;;;;;;;;;;6336788;22;20251;-88
2022/06/14 10:03:12;;;;;;;5.00;4.07;;;;;;;;;;6337081;22;20174;-87
2022/06/14 10:05:48;;;;;;;7.03;5.32;;;;;;;;;;6336979;22;20198;-87
2022/06/14 10:21:01;;;;;;;37.90;34.00;;;;;;;;;;6245045;22;20293;-93
2022/06/14 10:29:53;;;;;;;27.63;24.88;;;;;;;;;;6338281;22;20268;-86
2022/06/14 10:35:57;;;;;;;27.83;24.83;;;;;;;;;;6337681;22;20221;-87
2022/06/14 10:51:32;;;;;;;23.75;21.45;;;;;;;;;;6338008;22;20174;-86
2022/06/14 11:16:27;;;;;;;5.80;4.65;;;;;;;;;;6313568;22;20212;-91
2022/06/14 11:19:30;;;;;;;5.25;4.05;;;;;;;;;;6279732;22;20171;-90
2022/06/14 11:22:12;;;;;;;4.53;3.60;;;;;;;;;;6294475;22;20278;-91
2022/06/14 11:28:14;;;;;;;5.07;3.80;;;;;;;;;;6279729;22;20168;-91
2022/06/14 12:41:41;;;;;;;;;;;;;;;;;;;;;
2022/06/14 13:23:07;;;;;;;3.55;2.83;;;;;;;;;;6276148;22;20223;-90
2022/06/14 13:25:47;;;;;;;5.05;2.97;;;;;;;;;;6277652;22;20262;-87
2022/06/14 13:28:22;;;;;;;4.00;2.72;;;;;;;;;;6277198;22;20171;-88
2022/06/14 13:30:56;;;;;;;4.45;3.10;;;;;;;;;;6277015;22;20167;-87
2022/06/14 13:33:29;;;;;;;3.38;2.50;;;;;;;;;;6277085;22;20163;-87
2022/06/14 13:36:30;;;;;;;3.50;2.85;;;;;;;;;;6276232;22;20194;-89
2022/06/14 13:39:03;;;;;;;4.82;2.83;;;;;;;;;;6275404;22;20167;-89
2022/06/14 13:41:34;;;;;;;4.85;3.15;;;;;;;;;;6275049;22;20253;-89
2022/06/14 13:44:06;;;;;;;3.75;3.13;;;;;;;;;;6275161;22;20233;-89
2022/06/14 13:46:37;;;;;;;5.75;3.05;;;;;;;;;;6276629;22;20191;-88
2022/06/14 13:49:15;;;;;;;5.80;2.97;;;;;;;;;;6276698;22;20168;-88
2022/06/14 13:51:50;;;;;;;4.15;2.72;;;;;;;;;;6278944;22;20171;-89
2022/06/14 13:54:25;;;;;;;4.10;3.00;;;;;;;;;;6275910;22;20202;-89
2022/06/14 13:56:59;;;;;;;3.78;3.22;;;;;;;;;;6274897;22;20191;-88
2022/06/14 13:59:36;;;;;;;3.33;2.60;;;;;;;;;;6275356;22;20171;-89
2022/06/14 14:02:12;;;;;;;4.10;2.83;;;;;;;;;;6275796;22;20184;-89
2022/06/14 14:04:50;;;;;;;3.63;2.72;;;;;;;;;;6275973;22;20171;-88
2022/06/14 14:07:27;;;;;;;3.88;2.55;;;;;;;;;;6275137;22;20192;-89
2022/06/14 14:10:19;;;;;;;3.58;2.90;;;;;;;;;;6275557;22;20191;-89
2022/06/14 14:12:48;;;;;;;4.03;2.63;;;;;;;;;;6275375;22;20239;-87
2022/06/14 14:15:23;;;;;;;3.40;2.58;;;;;;;;;;6275429;22;20200;-88
2022/06/14 14:17:53;;;;;;;3.42;2.50;;;;;;;;;;6275039;22;20225;-88
2022/06/14 14:20:39;;;;;;;4.13;2.70;;;;;;;;;;6275106;22;20171;-88
2022/06/14 14:23:09;;;;;;;3.45;2.40;;;;;;;;;;6274751;22;20171;-87
2022/06/14 14:25:40;;;;;;;3.00;2.80;;;;;;;;;;6274951;22;20187;-88
2022/06/14 14:28:19;;;;;;;3.53;2.60;;;;;;;;;;6274939;22;20167;-87
2022/06/14 14:30:57;;;;;;;2.83;2.60;;;;;;;;;;6274583;22;20167;-89
2022/06/14 14:33:30;;;;;;;2.90;2.70;;;;;;;;;;6275163;22;20175;-89
2022/06/14 14:36:00;;;;;;;2.58;2.33;;;;;;;;;;6274950;22;20192;-89
2022/06/14 14:38:30;;;;;;;3.58;3.00;;;;;;;;;;6275664;22;20167;-87
2022/06/14 14:43:49;;;;;;;3.92;2.72;;;;;;;;;;6274944;22;20167;-89
2022/06/14 14:46:18;;;;;;;3.90;2.58;;;;;;;;;;6274465;22;20202;-89
2022/06/14 14:48:48;;;;;;;3.22;2.80;;;;;;;;;;6274903;22;20171;-89
2022/06/14 14:51:23;;;;;;;2.80;2.60;;;;;;;;;;6275052;22;20221;-89
2022/06/14 14:53:59;;;;;;;2.75;2.50;;;;;;;;;;6274861;22;20171;-89
2022/06/14 14:56:33;;;;;;;2.60;2.40;;;;;;;;;;6274899;22;20191;-89
2022/06/14 14:59:10;;;;;;;2.80;2.60;;;;;;;;;;6274579;22;20186;-88
2022/06/14 15:07:30;;;;;;;3.00;2.78;;;;;;;;;;6274643;22;20316;-89
2022/06/14 15:10:01;;;;;;;2.58;2.38;;;;;;;;;;6275192;22;20251;-89
2022/06/14 15:12:31;;;;;;;2.53;2.28;;;;;;;;;;6274882;22;20168;-89
2022/06/14 15:15:10;;;;;;;2.88;2.50;;;;;;;;;;6275004;22;20179;-89
2022/06/14 15:20:31;;;;;;;2.65;2.20;;;;;;;;;;6275271;22;20220;-89
2022/06/14 15:23:01;;;;;;;2.50;2.30;;;;;;;;;;6275309;22;20218;-89
2022/06/14 15:25:30;;;;;;;3.22;2.80;;;;;;;;;;6274770;22;20188;-90
2022/06/14 15:28:14;;;;;;;3.38;2.58;;;;;;;;;;6274723;22;20225;-89
2022/06/14 15:30:43;;;;;;;3.30;2.80;;;;;;;;;;6274918;22;20168;-89
2022/06/14 15:33:33;;;;;;;2.72;2.50;;;;;;;;;;6274853;22;20168;-88
2022/06/14 15:36:02;;;;;;;3.15;2.47;;;;;;;;;;6275806;22;20188;-90
2022/06/14 15:38:32;;;;;;;3.47;2.60;;;;;;;;;;6276603;22;20168;-90
2022/06/14 15:41:07;;;;;;;3.13;2.58;;;;;;;;;;6278001;22;20210;-89
2022/06/14 15:43:36;;;;;;;2.75;2.53;;;;;;;;;;6277348;22;20180;-88
2022/06/14 15:46:05;;;;;;;2.80;2.60;;;;;;;;;;6276222;22;20253;-89
2022/06/14 15:48:37;;;;;;;2.30;2.10;;;;;;;;;;6276335;22;20172;-88
2022/06/14 15:51:12;;;;;;;2.40;2.20;;;;;;;;;;6276562;22;20230;-86
2022/06/14 15:53:44;;;;;;;3.10;2.60;;;;;;;;;;6276372;22;20178;-89
2022/06/14 15:56:20;;;;;;;2.70;2.50;;;;;;;;;;6276192;22;20239;-90
2022/06/14 15:58:53;;;;;;;4.10;2.60;;;;;;;;;;6276956;22;20163;-90
2022/06/14 16:01:26;;;;;;;3.47;2.28;;;;;;;;;;6276252;22;20184;-86
2022/06/14 16:04:05;;;;;;;2.75;2.47;;;;;;;;;;6277398;22;20168;-88
2022/06/14 16:06:38;;;;;;;2.67;2.47;;;;;;;;;;6276831;22;20188;-89
2022/06/14 16:09:08;;;;;;;5.80;2.70;;;;;;;;;;6276797;22;20239;-89
2022/06/14 16:11:45;;;;;;;2.80;2.33;;;;;;;;;;6276561;22;20175;-88
2022/06/14 16:14:18;;;;;;;3.33;2.45;;;;;;;;;;6274797;22;20179;-88
2022/06/14 16:16:48;;;;;;;2.90;2.60;;;;;;;;;;6275193;22;20192;-88
2022/06/14 16:19:20;;;;;;;5.57;2.70;;;;;;;;;;6276007;22;20581;-87
2022/06/14 16:21:53;;;;;;;5.00;2.83;;;;;;;;;;6275645;22;20194;-89
2022/06/14 16:24:21;;;;;;;3.78;2.67;;;;;;;;;;6276728;22;20173;-90
2022/06/14 16:26:55;;;;;;;4.97;3.10;;;;;;;;;;6276183;22;20241;-89
2022/06/14 16:29:38;;;;;;;6.38;2.88;;;;;;;;;;6276801;22;20564;-89
2022/06/14 16:32:08;;;;;;;3.70;2.80;;;;;;;;;;6276526;22;20219;-89
2022/06/14 16:37:35;;;;;;;4.05;2.70;;;;;;;;;;6285887;22;20203;-90
2022/06/14 16:40:12;;;;;;;3.20;2.45;;;;;;;;;;6276740;22;20164;-90
2022/06/14 16:42:53;;;;;;;4.15;2.60;;;;;;;;;;6275879;22;20259;-90
2022/06/14 16:51:31;;;;;;;5.05;2.70;;;;;;;;;;6271755;22;20168;-91
2022/06/14 16:54:13;;;;;;;5.50;2.80;;;;;;;;;;6276152;22;20238;-89
2022/06/14 16:56:49;;;;;;;4.28;2.80;;;;;;;;;;6275405;22;20196;-90
2022/06/14 16:59:21;;;;;;;3.28;2.53;;;;;;;;;;6276005;22;20194;-88
2022/06/14 17:02:02;;;;;;;5.95;2.90;;;;;;;;;;6275496;22;20207;-89
2022/06/14 17:04:45;;;;;;;5.20;2.83;;;;;;;;;;6276330;22;20163;-89
2022/06/14 17:07:17;;;;;;;6.93;2.88;;;;;;;;;;6276810;22;20191;-88
2022/06/14 17:10:13;;;;;;;2.80;2.50;;;;;;;;;;6278409;22;20168;-90
2022/06/14 17:12:46;;;;;;;3.45;2.88;;;;;;;;;;6275730;22;20160;-87
2022/06/14 17:15:17;;;;;;;3.22;2.70;;;;;;;;;;6275630;22;20172;-87
2022/06/14 17:17:54;;;;;;;3.83;2.80;;;;;;;;;;6276385;22;20175;-87
2022/06/14 17:20:25;;;;;;;3.53;2.80;;;;;;;;;;6276026;22;20160;-86
2022/06/14 17:22:55;;;;;;;4.63;2.70;;;;;;;;;;6275701;22;20184;-85
2022/06/14 17:30:54;;;;;;;2.58;2.38;;;;;;;;;;6275426;22;20174;-86
2022/06/14 17:33:25;;;;;;;2.92;2.60;;;;;;;;;;6276232;22;20175;-85
2022/06/14 17:35:55;;;;;;;3.90;2.47;;;;;;;;;;6275472;22;20198;-86
2022/06/14 17:38:24;;;;;;;2.80;2.60;;;;;;;;;;6275752;22;20229;-86
2022/06/14 17:40:57;;;;;;;2.50;2.30;;;;;;;;;;6274580;22;20175;-86
2022/06/14 17:43:37;;;;;;;3.53;2.60;;;;;;;;;;6275361;22;20204;-90
2022/06/14 17:46:10;;;;;;;3.03;2.50;;;;;;;;;;6275400;22;20191;-89
2022/06/14 17:48:45;;;;;;;3.05;2.55;;;;;;;;;;6275363;22;20168;-90
2022/06/14 17:51:46;;;;;;;3.40;2.67;;;;;;;;;;6276415;22;20242;-89
2022/06/14 17:57:39;;;;;;;2.67;2.47;;;;;;;;;;6270463;22;20176;-89
2022/06/14 18:00:21;;;;;;;2.38;2.15;;;;;;;;;;6277538;22;20179;-90
2022/06/14 18:03:09;;;;;;;2.80;2.60;;;;;;;;;;6275022;22;20203;-91
2022/06/14 18:05:50;;;;;;;3.20;2.80;;;;;;;;;;6275870;22;20257;-89
2022/06/14 18:08:30;;;;;;;2.67;2.47;;;;;;;;;;6275991;22;20172;-91
2022/06/14 18:21:21;;;;;;;;;;;;;;;;;;;;;
2022/06/14 18:37:54;;;;;;;3.22;2.90;;;;;;;;;;6242395;22;20165;-87
2022/06/14 18:43:51;;;;;;;3.08;2.72;;;;;;;;;;6244402;23;20173;-89
2022/06/14 19:05:03;;;;;;;5.60;2.75;;;;;;;;;;5937688;23;20178;-86
2022/06/14 21:16:31;;;;;;;4.07;3.10;;;;;;;;;;6241888;23;20195;-86
2022/06/14 21:44:43;;;;;;;;;;;;;;;;;;;;;
